sensor_id;sensor_type;location;lat;lon;timestamp;temperature;humidity
24412;DHT22;12544;46.760;15.942;2024-02-23T00:01:27;10.90;99.90
24412;DHT22;12544;46.760;15.942;2024-02-23T00:03:54;10.90;99.90
24412;DHT22;12544;46.760;15.942;2024-02-23T00:06:21;10.90;99.90
24412;DHT22;12544;46.760;15.942;2024-02-23T00:08:48;10.90;99.90
24412;DHT22;12544;46.760;15.942;2024-02-23T00:11:13;10.90;99.90
24412;DHT22;12544;46.760;15.942;2024-02-23T00:13:39;10.90;99.90
24412;DHT22;12544;46.760;15.942;2024-02-23T00:16:05;10.90;99.90
24412;DHT22;12544;46.760;15.942;2024-02-23T00:18:31;11.00;99.90
24412;DHT22;12544;46.760;15.942;2024-02-23T00:20:56;11.00;99.90
24412;DHT22;12544;46.760;15.942;2024-02-23T00:23:22;11.00;99.90
24412;DHT22;12544;46.760;15.942;2024-02-23T00:25:47;11.00;99.90
24412;DHT22;12544;46.760;15.942;2024-02-23T00:28:13;11.00;99.90
24412;DHT22;12544;46.760;15.942;2024-02-23T00:30:39;11.00;99.90
24412;DHT22;12544;46.760;15.942;2024-02-23T00:33:05;11.00;99.90
24412;DHT22;12544;46.760;15.942;2024-02-23T00:35:30;11.00;99.90
24412;DHT22;12544;46.760;15.942;2024-02-23T00:37:56;11.00;99.90
24412;DHT22;12544;46.760;15.942;2024-02-23T00:40:22;10.90;99.90
24412;DHT22;12544;46.760;15.942;2024-02-23T00:42:49;11.00;99.90
24412;DHT22;12544;46.760;15.942;2024-02-23T00:45:14;11.00;99.90
24412;DHT22;12544;46.760;15.942;2024-02-23T00:47:40;11.00;99.90
24412;DHT22;12544;46.760;15.942;2024-02-23T00:50:06;11.10;99.90
24412;DHT22;12544;46.760;15.942;2024-02-23T00:52:32;11.00;99.90
24412;DHT22;12544;46.760;15.942;2024-02-23T00:54:58;11.10;99.90
24412;DHT22;12544;46.760;15.942;2024-02-23T00:57:23;11.00;99.90
24412;DHT22;12544;46.760;15.942;2024-02-23T00:59:57;11.10;99.90
24412;DHT22;12544;46.760;15.942;2024-02-23T01:02:23;11.10;99.90
24412;DHT22;12544;46.760;15.942;2024-02-23T01:04:49;11.10;99.90
24412;DHT22;12544;46.760;15.942;2024-02-23T01:07:14;11.10;99.90
24412;DHT22;12544;46.760;15.942;2024-02-23T01:09:40;11.00;99.90
24412;DHT22;12544;46.760;15.942;2024-02-23T01:12:07;11.10;99.90
24412;DHT22;12544;46.760;15.942;2024-02-23T01:14:32;11.00;99.90
24412;DHT22;12544;46.760;15.942;2024-02-23T01:16:58;11.00;99.90
24412;DHT22;12544;46.760;15.942;2024-02-23T01:19:24;11.00;99.90
24412;DHT22;12544;46.760;15.942;2024-02-23T01:21:50;11.00;99.90
24412;DHT22;12544;46.760;15.942;2024-02-23T01:24:24;11.00;99.90
24412;DHT22;12544;46.760;15.942;2024-02-23T01:26:51;11.00;99.90
24412;DHT22;12544;46.760;15.942;2024-02-23T01:29:17;10.90;99.90
24412;DHT22;12544;46.760;15.942;2024-02-23T01:31:42;10.90;99.90
24412;DHT22;12544;46.760;15.942;2024-02-23T01:34:08;10.80;99.90
24412;DHT22;12544;46.760;15.942;2024-02-23T01:36:34;10.80;99.90
24412;DHT22;12544;46.760;15.942;2024-02-23T01:38:59;10.70;99.90
24412;DHT22;12544;46.760;15.942;2024-02-23T01:41:25;10.60;99.90
24412;DHT22;12544;46.760;15.942;2024-02-23T01:43:50;10.50;99.90
24412;DHT22;12544;46.760;15.942;2024-02-23T01:46:17;10.50;99.90
24412;DHT22;12544;46.760;15.942;2024-02-23T01:48:45;10.40;99.90
24412;DHT22;12544;46.760;15.942;2024-02-23T01:51:11;10.40;99.90
24412;DHT22;12544;46.760;15.942;2024-02-23T01:53:38;10.40;99.90
24412;DHT22;12544;46.760;15.942;2024-02-23T01:56:04;10.40;99.90
24412;DHT22;12544;46.760;15.942;2024-02-23T01:58:30;10.40;99.90
24412;DHT22;12544;46.760;15.942;2024-02-23T02:00:57;10.40;99.90
24412;DHT22;12544;46.760;15.942;2024-02-23T02:03:23;10.40;99.90
24412;DHT22;12544;46.760;15.942;2024-02-23T02:05:49;10.40;99.90
24412;DHT22;12544;46.760;15.942;2024-02-23T02:08:17;10.50;99.90
24412;DHT22;12544;46.760;15.942;2024-02-23T02:10:42;10.50;99.90
24412;DHT22;12544;46.760;15.942;2024-02-23T02:13:09;10.50;99.90
24412;DHT22;12544;46.760;15.942;2024-02-23T02:15:35;10.50;99.90
24412;DHT22;12544;46.760;15.942;2024-02-23T02:18:01;10.50;99.90
24412;DHT22;12544;46.760;15.942;2024-02-23T02:20:27;10.50;99.90
24412;DHT22;12544;46.760;15.942;2024-02-23T02:22:53;10.50;99.90
24412;DHT22;12544;46.760;15.942;2024-02-23T02:25:19;10.50;99.90
24412;DHT22;12544;46.760;15.942;2024-02-23T02:27:45;10.50;99.90
24412;DHT22;12544;46.760;15.942;2024-02-23T02:30:12;10.50;99.90
24412;DHT22;12544;46.760;15.942;2024-02-23T02:32:37;10.50;99.90
24412;DHT22;12544;46.760;15.942;2024-02-23T02:35:04;10.50;99.90
24412;DHT22;12544;46.760;15.942;2024-02-23T02:37:29;10.50;99.90
24412;DHT22;12544;46.760;15.942;2024-02-23T02:39:55;10.50;99.90
24412;DHT22;12544;46.760;15.942;2024-02-23T02:42:20;10.50;99.90
24412;DHT22;12544;46.760;15.942;2024-02-23T02:44:46;10.40;99.90
24412;DHT22;12544;46.760;15.942;2024-02-23T02:47:12;10.40;99.90
24412;DHT22;12544;46.760;15.942;2024-02-23T02:49:39;10.50;99.90
24412;DHT22;12544;46.760;15.942;2024-02-23T02:52:05;10.50;99.90
24412;DHT22;12544;46.760;15.942;2024-02-23T02:54:31;10.50;99.90
24412;DHT22;12544;46.760;15.942;2024-02-23T02:56:57;10.50;99.90
24412;DHT22;12544;46.760;15.942;2024-02-23T02:59:24;10.50;99.90
24412;DHT22;12544;46.760;15.942;2024-02-23T03:01:50;10.50;99.90
24412;DHT22;12544;46.760;15.942;2024-02-23T03:04:15;10.50;99.90
24412;DHT22;12544;46.760;15.942;2024-02-23T03:06:41;10.50;99.90
24412;DHT22;12544;46.760;15.942;2024-02-23T03:09:07;10.50;99.90
24412;DHT22;12544;46.760;15.942;2024-02-23T03:11:33;10.50;99.90
24412;DHT22;12544;46.760;15.942;2024-02-23T03:13:58;10.50;99.90
24412;DHT22;12544;46.760;15.942;2024-02-23T03:16:24;10.40;99.90
24412;DHT22;12544;46.760;15.942;2024-02-23T03:18:51;10.40;99.90
24412;DHT22;12544;46.760;15.942;2024-02-23T03:21:19;10.40;99.90
24412;DHT22;12544;46.760;15.942;2024-02-23T03:23:47;10.40;99.90
24412;DHT22;12544;46.760;15.942;2024-02-23T03:26:12;10.40;99.90
24412;DHT22;12544;46.760;15.942;2024-02-23T03:28:39;10.40;99.90
24412;DHT22;12544;46.760;15.942;2024-02-23T03:31:04;10.40;99.90
24412;DHT22;12544;46.760;15.942;2024-02-23T03:33:30;10.40;99.90
24412;DHT22;12544;46.760;15.942;2024-02-23T03:35:57;10.40;99.90
24412;DHT22;12544;46.760;15.942;2024-02-23T03:38:23;10.40;99.90
24412;DHT22;12544;46.760;15.942;2024-02-23T03:40:51;10.30;99.90
24412;DHT22;12544;46.760;15.942;2024-02-23T03:43:16;10.30;99.90
24412;DHT22;12544;46.760;15.942;2024-02-23T03:45:42;10.30;99.90
24412;DHT22;12544;46.760;15.942;2024-02-23T03:48:08;10.30;99.90
24412;DHT22;12544;46.760;15.942;2024-02-23T03:50:33;10.30;99.90
24412;DHT22;12544;46.760;15.942;2024-02-23T03:52:59;10.30;99.90
24412;DHT22;12544;46.760;15.942;2024-02-23T03:55:24;10.30;99.90
24412;DHT22;12544;46.760;15.942;2024-02-23T03:57:50;10.30;99.90
24412;DHT22;12544;46.760;15.942;2024-02-23T04:00:16;10.30;99.90
24412;DHT22;12544;46.760;15.942;2024-02-23T04:02:42;10.30;99.90
24412;DHT22;12544;46.760;15.942;2024-02-23T04:05:08;10.30;99.90
24412;DHT22;12544;46.760;15.942;2024-02-23T04:07:34;10.30;99.90
24412;DHT22;12544;46.760;15.942;2024-02-23T04:09:59;10.30;99.90
24412;DHT22;12544;46.760;15.942;2024-02-23T04:12:25;10.30;99.90
24412;DHT22;12544;46.760;15.942;2024-02-23T04:14:50;10.30;99.90
24412;DHT22;12544;46.760;15.942;2024-02-23T04:17:16;10.30;99.90
24412;DHT22;12544;46.760;15.942;2024-02-23T04:19:43;10.30;99.90
24412;DHT22;12544;46.760;15.942;2024-02-23T04:22:09;10.40;99.90
24412;DHT22;12544;46.760;15.942;2024-02-23T04:24:41;10.30;99.90
24412;DHT22;12544;46.760;15.942;2024-02-23T04:27:07;10.30;99.90
24412;DHT22;12544;46.760;15.942;2024-02-23T04:29:33;10.30;99.90
24412;DHT22;12544;46.760;15.942;2024-02-23T04:32:04;10.20;99.90
24412;DHT22;12544;46.760;15.942;2024-02-23T04:34:30;10.30;99.90
24412;DHT22;12544;46.760;15.942;2024-02-23T04:36:56;10.30;99.90
24412;DHT22;12544;46.760;15.942;2024-02-23T04:39:22;10.20;99.90
24412;DHT22;12544;46.760;15.942;2024-02-23T04:41:48;10.20;99.90
24412;DHT22;12544;46.760;15.942;2024-02-23T04:44:13;10.20;99.90
24412;DHT22;12544;46.760;15.942;2024-02-23T04:46:39;10.10;99.90
24412;DHT22;12544;46.760;15.942;2024-02-23T04:49:06;10.20;99.90
24412;DHT22;12544;46.760;15.942;2024-02-23T04:51:32;10.10;99.90
24412;DHT22;12544;46.760;15.942;2024-02-23T04:53:57;10.10;99.90
24412;DHT22;12544;46.760;15.942;2024-02-23T04:56:23;10.10;99.90
24412;DHT22;12544;46.760;15.942;2024-02-23T04:58:49;10.10;99.90
24412;DHT22;12544;46.760;15.942;2024-02-23T05:01:15;10.10;99.90
24412;DHT22;12544;46.760;15.942;2024-02-23T05:03:40;10.10;99.90
24412;DHT22;12544;46.760;15.942;2024-02-23T05:06:06;10.20;99.90
24412;DHT22;12544;46.760;15.942;2024-02-23T05:08:32;10.10;99.90
24412;DHT22;12544;46.760;15.942;2024-02-23T05:10:57;10.10;99.90
24412;DHT22;12544;46.760;15.942;2024-02-23T05:13:24;10.10;99.90
24412;DHT22;12544;46.760;15.942;2024-02-23T05:15:49;10.20;99.90
24412;DHT22;12544;46.760;15.942;2024-02-23T05:18:15;10.20;99.90
24412;DHT22;12544;46.760;15.942;2024-02-23T05:20:41;10.20;99.90
24412;DHT22;12544;46.760;15.942;2024-02-23T05:23:06;10.10;99.90
24412;DHT22;12544;46.760;15.942;2024-02-23T05:25:32;10.20;99.90
24412;DHT22;12544;46.760;15.942;2024-02-23T05:27:58;10.10;99.90
24412;DHT22;12544;46.760;15.942;2024-02-23T05:30:24;10.10;99.90
24412;DHT22;12544;46.760;15.942;2024-02-23T05:32:52;10.20;99.90
24412;DHT22;12544;46.760;15.942;2024-02-23T05:35:17;10.10;99.90
24412;DHT22;12544;46.760;15.942;2024-02-23T05:37:44;10.20;99.90
24412;DHT22;12544;46.760;15.942;2024-02-23T05:40:10;10.20;99.90
24412;DHT22;12544;46.760;15.942;2024-02-23T05:42:39;10.10;99.90
24412;DHT22;12544;46.760;15.942;2024-02-23T05:45:07;10.10;99.90
24412;DHT22;12544;46.760;15.942;2024-02-23T05:47:36;10.20;99.90
24412;DHT22;12544;46.760;15.942;2024-02-23T05:50:03;10.10;99.90
24412;DHT22;12544;46.760;15.942;2024-02-23T05:52:32;10.10;99.90
24412;DHT22;12544;46.760;15.942;2024-02-23T05:54:58;10.10;99.90
24412;DHT22;12544;46.760;15.942;2024-02-23T05:57:28;10.10;99.90
24412;DHT22;12544;46.760;15.942;2024-02-23T05:59:54;10.10;99.90
24412;DHT22;12544;46.760;15.942;2024-02-23T06:02:21;10.00;99.90
24412;DHT22;12544;46.760;15.942;2024-02-23T06:04:47;10.10;99.90
24412;DHT22;12544;46.760;15.942;2024-02-23T06:07:13;10.10;99.90
24412;DHT22;12544;46.760;15.942;2024-02-23T06:09:41;10.10;99.90
24412;DHT22;12544;46.760;15.942;2024-02-23T06:12:07;10.10;99.90
24412;DHT22;12544;46.760;15.942;2024-02-23T06:14:33;10.10;99.90
24412;DHT22;12544;46.760;15.942;2024-02-23T06:16:58;10.10;99.90
24412;DHT22;12544;46.760;15.942;2024-02-23T06:19:24;10.00;99.90
24412;DHT22;12544;46.760;15.942;2024-02-23T06:21:50;10.00;99.90
24412;DHT22;12544;46.760;15.942;2024-02-23T06:24:16;10.00;99.90
24412;DHT22;12544;46.760;15.942;2024-02-23T06:26:50;10.00;99.90
24412;DHT22;12544;46.760;15.942;2024-02-23T06:29:16;10.00;99.90
24412;DHT22;12544;46.760;15.942;2024-02-23T06:31:42;9.90;99.90
24412;DHT22;12544;46.760;15.942;2024-02-23T06:34:08;9.90;99.90
24412;DHT22;12544;46.760;15.942;2024-02-23T06:36:34;9.90;99.90
24412;DHT22;12544;46.760;15.942;2024-02-23T06:38:59;9.90;99.90
24412;DHT22;12544;46.760;15.942;2024-02-23T06:41:25;9.90;99.90
24412;DHT22;12544;46.760;15.942;2024-02-23T06:43:51;9.90;99.90
24412;DHT22;12544;46.760;15.942;2024-02-23T06:46:19;9.80;99.90
24412;DHT22;12544;46.760;15.942;2024-02-23T06:48:47;9.90;99.90
24412;DHT22;12544;46.760;15.942;2024-02-23T06:51:13;9.90;99.90
24412;DHT22;12544;46.760;15.942;2024-02-23T06:53:39;9.90;99.90
24412;DHT22;12544;46.760;15.942;2024-02-23T06:56:05;9.90;99.90
24412;DHT22;12544;46.760;15.942;2024-02-23T06:58:31;9.90;99.90
24412;DHT22;12544;46.760;15.942;2024-02-23T07:00:57;10.00;99.90
24412;DHT22;12544;46.760;15.942;2024-02-23T07:03:22;9.90;99.90
24412;DHT22;12544;46.760;15.942;2024-02-23T07:05:48;10.00;99.90
24412;DHT22;12544;46.760;15.942;2024-02-23T07:08:15;10.00;99.90
24412;DHT22;12544;46.760;15.942;2024-02-23T07:10:41;10.00;99.90
24412;DHT22;12544;46.760;15.942;2024-02-23T07:13:07;10.10;99.90
24412;DHT22;12544;46.760;15.942;2024-02-23T07:15:33;10.10;99.90
24412;DHT22;12544;46.760;15.942;2024-02-23T07:17:59;10.10;99.90
24412;DHT22;12544;46.760;15.942;2024-02-23T07:20:24;10.10;99.90
24412;DHT22;12544;46.760;15.942;2024-02-23T07:22:50;10.20;99.90
24412;DHT22;12544;46.760;15.942;2024-02-23T07:25:19;10.20;99.90
24412;DHT22;12544;46.760;15.942;2024-02-23T07:27:48;10.20;99.90
24412;DHT22;12544;46.760;15.942;2024-02-23T07:30:17;10.20;99.90
24412;DHT22;12544;46.760;15.942;2024-02-23T07:32:43;10.30;99.90
24412;DHT22;12544;46.760;15.942;2024-02-23T07:35:10;10.30;99.90
24412;DHT22;12544;46.760;15.942;2024-02-23T07:37:36;10.40;99.90
24412;DHT22;12544;46.760;15.942;2024-02-23T07:40:02;10.50;99.90
24412;DHT22;12544;46.760;15.942;2024-02-23T07:42:30;10.50;99.90
24412;DHT22;12544;46.760;15.942;2024-02-23T07:44:56;10.50;99.90
24412;DHT22;12544;46.760;15.942;2024-02-23T07:47:22;10.50;99.90
24412;DHT22;12544;46.760;15.942;2024-02-23T07:49:47;10.50;99.90
24412;DHT22;12544;46.760;15.942;2024-02-23T07:52:13;10.60;99.90
24412;DHT22;12544;46.760;15.942;2024-02-23T07:54:39;10.60;99.90
24412;DHT22;12544;46.760;15.942;2024-02-23T07:57:04;10.50;99.90
24412;DHT22;12544;46.760;15.942;2024-02-23T07:59:31;10.50;99.90
24412;DHT22;12544;46.760;15.942;2024-02-23T08:01:57;10.50;99.90
24412;DHT22;12544;46.760;15.942;2024-02-23T08:04:22;10.50;99.90
24412;DHT22;12544;46.760;15.942;2024-02-23T08:06:48;10.50;99.90
24412;DHT22;12544;46.760;15.942;2024-02-23T08:09:14;10.50;99.90
24412;DHT22;12544;46.760;15.942;2024-02-23T08:11:40;10.50;99.90
24412;DHT22;12544;46.760;15.942;2024-02-23T08:14:06;10.40;99.90
24412;DHT22;12544;46.760;15.942;2024-02-23T08:16:32;10.40;99.90
24412;DHT22;12544;46.760;15.942;2024-02-23T08:18:58;10.30;99.90
24412;DHT22;12544;46.760;15.942;2024-02-23T08:21:24;10.30;99.90
24412;DHT22;12544;46.760;15.942;2024-02-23T08:23:50;10.30;99.90
24412;DHT22;12544;46.760;15.942;2024-02-23T08:26:15;10.20;99.90
24412;DHT22;12544;46.760;15.942;2024-02-23T08:28:41;10.30;99.90
24412;DHT22;12544;46.760;15.942;2024-02-23T08:31:07;10.20;99.90
24412;DHT22;12544;46.760;15.942;2024-02-23T08:33:32;10.10;99.90
24412;DHT22;12544;46.760;15.942;2024-02-23T08:35:58;10.10;99.90
24412;DHT22;12544;46.760;15.942;2024-02-23T08:38:27;10.00;99.90
24412;DHT22;12544;46.760;15.942;2024-02-23T08:40:53;9.90;99.90
24412;DHT22;12544;46.760;15.942;2024-02-23T08:43:19;10.00;99.90
24412;DHT22;12544;46.760;15.942;2024-02-23T08:45:45;10.00;99.90
24412;DHT22;12544;46.760;15.942;2024-02-23T08:48:11;10.00;99.90
24412;DHT22;12544;46.760;15.942;2024-02-23T08:50:40;9.90;99.90
24412;DHT22;12544;46.760;15.942;2024-02-23T08:53:06;9.90;99.90
24412;DHT22;12544;46.760;15.942;2024-02-23T08:55:40;9.80;99.90
24412;DHT22;12544;46.760;15.942;2024-02-23T08:58:06;9.80;99.90
24412;DHT22;12544;46.760;15.942;2024-02-23T09:00:32;9.90;99.90
24412;DHT22;12544;46.760;15.942;2024-02-23T09:02:57;9.90;99.90
24412;DHT22;12544;46.760;15.942;2024-02-23T09:05:23;9.90;99.90
24412;DHT22;12544;46.760;15.942;2024-02-23T09:07:49;10.00;99.90
24412;DHT22;12544;46.760;15.942;2024-02-23T09:10:15;10.00;99.90
24412;DHT22;12544;46.760;15.942;2024-02-23T09:12:41;9.90;99.90
24412;DHT22;12544;46.760;15.942;2024-02-23T09:15:07;9.90;99.90
24412;DHT22;12544;46.760;15.942;2024-02-23T09:17:33;9.80;99.90
24412;DHT22;12544;46.760;15.942;2024-02-23T09:19:58;9.70;99.90
24412;DHT22;12544;46.760;15.942;2024-02-23T09:22:24;9.80;99.90
24412;DHT22;12544;46.760;15.942;2024-02-23T09:24:49;9.70;99.90
24412;DHT22;12544;46.760;15.942;2024-02-23T09:27:15;9.70;99.90
24412;DHT22;12544;46.760;15.942;2024-02-23T09:29:41;9.80;99.90
24412;DHT22;12544;46.760;15.942;2024-02-23T09:32:07;9.80;99.90
24412;DHT22;12544;46.760;15.942;2024-02-23T09:34:33;9.90;99.90
24412;DHT22;12544;46.760;15.942;2024-02-23T09:36:59;10.00;99.90
24412;DHT22;12544;46.760;15.942;2024-02-23T09:39:24;10.00;99.90
24412;DHT22;12544;46.760;15.942;2024-02-23T09:41:52;10.00;99.90
24412;DHT22;12544;46.760;15.942;2024-02-23T09:44:20;10.00;99.90
24412;DHT22;12544;46.760;15.942;2024-02-23T09:46:49;10.10;99.90
24412;DHT22;12544;46.760;15.942;2024-02-23T09:49:17;10.10;99.90
24412;DHT22;12544;46.760;15.942;2024-02-23T09:51:43;10.00;99.90
24412;DHT22;12544;46.760;15.942;2024-02-23T09:54:10;10.00;99.90
24412;DHT22;12544;46.760;15.942;2024-02-23T09:56:35;10.00;99.90
24412;DHT22;12544;46.760;15.942;2024-02-23T09:59:03;10.00;99.90
24412;DHT22;12544;46.760;15.942;2024-02-23T10:01:30;9.90;99.90
24412;DHT22;12544;46.760;15.942;2024-02-23T10:03:57;9.80;99.90
24412;DHT22;12544;46.760;15.942;2024-02-23T10:06:25;9.80;99.90
24412;DHT22;12544;46.760;15.942;2024-02-23T10:08:50;9.70;99.90
24412;DHT22;12544;46.760;15.942;2024-02-23T10:11:23;9.70;99.90
24412;DHT22;12544;46.760;15.942;2024-02-23T10:13:49;9.70;99.90
24412;DHT22;12544;46.760;15.942;2024-02-23T10:16:16;9.60;99.90
24412;DHT22;12544;46.760;15.942;2024-02-23T10:18:42;9.60;99.90
24412;DHT22;12544;46.760;15.942;2024-02-23T10:21:08;9.60;99.90
24412;DHT22;12544;46.760;15.942;2024-02-23T10:23:34;9.60;99.90
24412;DHT22;12544;46.760;15.942;2024-02-23T10:26:31;9.60;99.90
24412;DHT22;12544;46.760;15.942;2024-02-23T10:28:57;9.70;99.90
24412;DHT22;12544;46.760;15.942;2024-02-23T10:31:24;9.70;99.90
24412;DHT22;12544;46.760;15.942;2024-02-23T10:33:50;9.70;99.90
24412;DHT22;12544;46.760;15.942;2024-02-23T10:36:18;9.70;99.90
24412;DHT22;12544;46.760;15.942;2024-02-23T10:38:45;9.60;99.90
24412;DHT22;12544;46.760;15.942;2024-02-23T10:41:13;9.60;99.90
24412;DHT22;12544;46.760;15.942;2024-02-23T10:43:44;9.60;99.90
24412;DHT22;12544;46.760;15.942;2024-02-23T10:46:14;9.60;99.90
24412;DHT22;12544;46.760;15.942;2024-02-23T10:48:44;9.60;99.90
24412;DHT22;12544;46.760;15.942;2024-02-23T10:51:12;9.60;99.90
24412;DHT22;12544;46.760;15.942;2024-02-23T10:53:39;9.60;99.90
24412;DHT22;12544;46.760;15.942;2024-02-23T10:56:06;9.60;99.90
24412;DHT22;12544;46.760;15.942;2024-02-23T11:01:55;9.60;99.90
24412;DHT22;12544;46.760;15.942;2024-02-23T11:04:23;9.60;99.90
24412;DHT22;12544;46.760;15.942;2024-02-23T11:06:52;9.60;99.90
24412;DHT22;12544;46.760;15.942;2024-02-23T11:09:23;9.60;99.90
24412;DHT22;12544;46.760;15.942;2024-02-23T11:11:56;9.60;99.90
24412;DHT22;12544;46.760;15.942;2024-02-23T11:14:35;9.60;99.90
24412;DHT22;12544;46.760;15.942;2024-02-23T11:17:02;9.60;99.90
24412;DHT22;12544;46.760;15.942;2024-02-23T11:19:37;9.70;99.90
24412;DHT22;12544;46.760;15.942;2024-02-23T11:22:03;9.70;99.90
24412;DHT22;12544;46.760;15.942;2024-02-23T11:24:30;9.80;99.90
24412;DHT22;12544;46.760;15.942;2024-02-23T11:26:57;9.80;99.90
24412;DHT22;12544;46.760;15.942;2024-02-23T11:29:26;9.90;99.90
24412;DHT22;12544;46.760;15.942;2024-02-23T11:31:53;9.90;99.90
24412;DHT22;12544;46.760;15.942;2024-02-23T11:34:23;9.90;99.90
24412;DHT22;12544;46.760;15.942;2024-02-23T11:36:51;9.80;99.90
24412;DHT22;12544;46.760;15.942;2024-02-23T11:39:19;9.90;99.90
24412;DHT22;12544;46.760;15.942;2024-02-23T11:41:45;9.80;99.90
24412;DHT22;12544;46.760;15.942;2024-02-23T11:44:13;9.80;99.90
24412;DHT22;12544;46.760;15.942;2024-02-23T11:46:39;9.80;99.90
24412;DHT22;12544;46.760;15.942;2024-02-23T11:49:04;9.80;99.90
24412;DHT22;12544;46.760;15.942;2024-02-23T11:51:30;9.90;99.90
24412;DHT22;12544;46.760;15.942;2024-02-23T11:57:07;9.90;99.90
24412;DHT22;12544;46.760;15.942;2024-02-23T11:59:33;9.90;99.90
24412;DHT22;12544;46.760;15.942;2024-02-23T12:01:59;9.90;99.90
24412;DHT22;12544;46.760;15.942;2024-02-23T12:04:27;9.90;99.90
24412;DHT22;12544;46.760;15.942;2024-02-23T12:06:54;9.90;99.90
24412;DHT22;12544;46.760;15.942;2024-02-23T12:09:20;9.90;99.90
24412;DHT22;12544;46.760;15.942;2024-02-23T12:11:45;9.90;99.90
24412;DHT22;12544;46.760;15.942;2024-02-23T12:14:11;10.00;99.90
24412;DHT22;12544;46.760;15.942;2024-02-23T12:19:59;10.00;99.90
24412;DHT22;12544;46.760;15.942;2024-02-23T12:22:25;10.00;99.90
24412;DHT22;12544;46.760;15.942;2024-02-23T12:24:51;9.90;99.90
24412;DHT22;12544;46.760;15.942;2024-02-23T12:27:17;9.90;99.90
24412;DHT22;12544;46.760;15.942;2024-02-23T12:29:51;9.90;99.90
24412;DHT22;12544;46.760;15.942;2024-02-23T12:32:23;9.90;99.90
24412;DHT22;12544;46.760;15.942;2024-02-23T12:34:48;9.90;99.90
24412;DHT22;12544;46.760;15.942;2024-02-23T12:37:15;10.00;99.90
24412;DHT22;12544;46.760;15.942;2024-02-23T12:39:41;9.90;99.90
24412;DHT22;12544;46.760;15.942;2024-02-23T12:42:07;10.00;99.90
24412;DHT22;12544;46.760;15.942;2024-02-23T12:44:33;10.00;99.90
24412;DHT22;12544;46.760;15.942;2024-02-23T12:46:59;10.00;99.90
24412;DHT22;12544;46.760;15.942;2024-02-23T12:49:24;10.00;99.90
24412;DHT22;12544;46.760;15.942;2024-02-23T12:51:50;10.10;99.90
24412;DHT22;12544;46.760;15.942;2024-02-23T12:54:16;10.10;99.90
24412;DHT22;12544;46.760;15.942;2024-02-23T12:56:41;10.10;99.90
24412;DHT22;12544;46.760;15.942;2024-02-23T12:59:08;10.10;99.90
24412;DHT22;12544;46.760;15.942;2024-02-23T13:01:37;10.20;99.90
24412;DHT22;12544;46.760;15.942;2024-02-23T13:04:04;10.20;99.90
24412;DHT22;12544;46.760;15.942;2024-02-23T13:06:38;10.20;99.90
24412;DHT22;12544;46.760;15.942;2024-02-23T13:09:04;10.30;99.90
24412;DHT22;12544;46.760;15.942;2024-02-23T13:11:34;10.30;99.90
24412;DHT22;12544;46.760;15.942;2024-02-23T13:14:00;10.30;99.90
24412;DHT22;12544;46.760;15.942;2024-02-23T13:16:25;10.40;99.90
24412;DHT22;12544;46.760;15.942;2024-02-23T13:18:51;10.50;99.90
24412;DHT22;12544;46.760;15.942;2024-02-23T13:21:17;10.50;99.90
24412;DHT22;12544;46.760;15.942;2024-02-23T13:23:43;10.50;99.90
24412;DHT22;12544;46.760;15.942;2024-02-23T13:26:09;10.60;99.90
24412;DHT22;12544;46.760;15.942;2024-02-23T13:28:36;10.60;99.90
24412;DHT22;12544;46.760;15.942;2024-02-23T13:31:02;10.60;99.90
24412;DHT22;12544;46.760;15.942;2024-02-23T13:33:28;10.60;99.90
24412;DHT22;12544;46.760;15.942;2024-02-23T13:35:54;10.60;99.90
24412;DHT22;12544;46.760;15.942;2024-02-23T13:38:20;10.70;99.90
24412;DHT22;12544;46.760;15.942;2024-02-23T13:40:46;10.80;99.90
24412;DHT22;12544;46.760;15.942;2024-02-23T13:43:15;10.80;99.90
24412;DHT22;12544;46.760;15.942;2024-02-23T13:45:51;10.90;99.90
24412;DHT22;12544;46.760;15.942;2024-02-23T13:48:17;10.90;99.90
24412;DHT22;12544;46.760;15.942;2024-02-23T13:50:47;11.00;99.90
24412;DHT22;12544;46.760;15.942;2024-02-23T13:53:13;11.00;99.90
24412;DHT22;12544;46.760;15.942;2024-02-23T13:55:39;11.00;99.90
24412;DHT22;12544;46.760;15.942;2024-02-23T13:58:05;11.00;99.90
24412;DHT22;12544;46.760;15.942;2024-02-23T14:00:30;11.00;99.90
24412;DHT22;12544;46.760;15.942;2024-02-23T14:02:56;11.00;99.90
24412;DHT22;12544;46.760;15.942;2024-02-23T14:05:22;11.10;99.90
24412;DHT22;12544;46.760;15.942;2024-02-23T14:07:50;11.10;99.90
24412;DHT22;12544;46.760;15.942;2024-02-23T14:10:16;11.10;99.90
24412;DHT22;12544;46.760;15.942;2024-02-23T14:12:42;11.10;99.90
24412;DHT22;12544;46.760;15.942;2024-02-23T14:15:08;11.10;99.90
24412;DHT22;12544;46.760;15.942;2024-02-23T14:17:35;11.10;99.90
24412;DHT22;12544;46.760;15.942;2024-02-23T14:20:01;11.10;99.90
24412;DHT22;12544;46.760;15.942;2024-02-23T14:22:28;11.10;99.90
24412;DHT22;12544;46.760;15.942;2024-02-23T14:24:53;11.10;99.90
24412;DHT22;12544;46.760;15.942;2024-02-23T14:27:19;11.10;99.90
24412;DHT22;12544;46.760;15.942;2024-02-23T14:29:45;11.10;99.90
24412;DHT22;12544;46.760;15.942;2024-02-23T14:32:17;11.10;99.90
24412;DHT22;12544;46.760;15.942;2024-02-23T14:34:43;11.10;99.90
24412;DHT22;12544;46.760;15.942;2024-02-23T14:37:09;11.10;99.90
24412;DHT22;12544;46.760;15.942;2024-02-23T14:39:35;11.20;99.90
24412;DHT22;12544;46.760;15.942;2024-02-23T14:42:00;11.20;99.90
24412;DHT22;12544;46.760;15.942;2024-02-23T14:44:27;11.20;99.90
24412;DHT22;12544;46.760;15.942;2024-02-23T14:46:53;11.20;99.90
24412;DHT22;12544;46.760;15.942;2024-02-23T14:49:18;11.20;99.90
24412;DHT22;12544;46.760;15.942;2024-02-23T14:51:44;11.20;99.90
24412;DHT22;12544;46.760;15.942;2024-02-23T14:54:12;11.20;99.90
24412;DHT22;12544;46.760;15.942;2024-02-23T14:56:38;11.30;99.90
24412;DHT22;12544;46.760;15.942;2024-02-23T14:59:06;11.30;99.90
24412;DHT22;12544;46.760;15.942;2024-02-23T15:01:37;11.30;99.90
24412;DHT22;12544;46.760;15.942;2024-02-23T15:04:04;11.30;99.90
24412;DHT22;12544;46.760;15.942;2024-02-23T15:06:29;11.30;99.90
24412;DHT22;12544;46.760;15.942;2024-02-23T15:08:55;11.20;99.90
24412;DHT22;12544;46.760;15.942;2024-02-23T15:11:20;11.20;99.90
24412;DHT22;12544;46.760;15.942;2024-02-23T15:13:47;11.20;99.90
24412;DHT22;12544;46.760;15.942;2024-02-23T15:16:12;11.20;99.90
24412;DHT22;12544;46.760;15.942;2024-02-23T15:18:38;11.20;99.90
24412;DHT22;12544;46.760;15.942;2024-02-23T15:21:04;11.20;99.90
24412;DHT22;12544;46.760;15.942;2024-02-23T15:23:29;11.20;99.90
24412;DHT22;12544;46.760;15.942;2024-02-23T15:25:55;11.20;99.90